sensor_id;sensor_type;location;lat;lon;timestamp;pressure;altitude;pressure_sealevel;temperature;humidity
11888;BME280;6003;42.756;23.130;2022-12-18T00:00:48;153439.91;;;4.00;100.00
11888;BME280;6003;42.756;23.130;2022-12-18T00:03:15;153454.38;;;4.06;100.00
11888;BME280;6003;42.756;23.130;2022-12-18T00:05:48;153454.38;;;4.06;100.00
11888;BME280;6003;42.756;23.130;2022-12-18T00:08:15;153466.16;;;4.11;100.00
11888;BME280;6003;42.756;23.130;2022-12-18T00:10:43;153463.56;;;4.10;100.00
11888;BME280;6003;42.756;23.130;2022-12-18T00:13:10;153472.75;;;4.13;100.00
11888;BME280;6003;42.756;23.130;2022-12-18T00:15:38;153463.56;;;4.10;100.00
11888;BME280;6003;42.756;23.130;2022-12-18T00:18:07;153453.00;;;4.05;100.00
11888;BME280;6003;42.756;23.130;2022-12-18T00:20:36;153463.56;;;4.10;100.00
11888;BME280;6003;42.756;23.130;2022-12-18T00:23:04;153488.53;;;4.19;100.00
11888;BME280;6003;42.756;23.130;2022-12-18T00:25:32;153479.31;;;4.16;100.00
11888;BME280;6003;42.756;23.130;2022-12-18T00:28:00;153492.50;;;4.21;100.00
11888;BME280;6003;42.756;23.130;2022-12-18T00:30:27;153503.00;;;4.25;100.00
11888;BME280;6003;42.756;23.130;2022-12-18T00:32:54;153487.22;;;4.19;100.00
11888;BME280;6003;42.756;23.130;2022-12-18T00:35:22;153489.81;;;4.20;100.00
11888;BME280;6003;42.756;23.130;2022-12-18T00:37:49;153463.56;;;4.10;100.00
11888;BME280;6003;42.756;23.130;2022-12-18T00:40:15;153450.41;;;4.04;100.00
11888;BME280;6003;42.756;23.130;2022-12-18T00:42:48;153442.50;;;4.01;100.00
11888;BME280;6003;42.756;23.130;2022-12-18T00:45:24;153405.69;;;3.87;100.00
11888;BME280;6003;42.756;23.130;2022-12-18T00:47:51;153399.13;;;3.84;100.00
11888;BME280;6003;42.756;23.130;2022-12-18T00:50:18;153359.72;;;3.69;100.00
11888;BME280;6003;42.756;23.130;2022-12-18T00:52:46;153353.13;;;3.67;100.00
11888;BME280;6003;42.756;23.130;2022-12-18T00:55:14;153338.69;;;3.61;100.00
11888;BME280;6003;42.756;23.130;2022-12-18T00:57:41;153318.94;;;3.53;100.00
11888;BME280;6003;42.756;23.130;2022-12-18T01:00:10;153305.84;;;3.48;100.00
11888;BME280;6003;42.756;23.130;2022-12-18T01:02:38;153287.41;;;3.41;100.00
11888;BME280;6003;42.756;23.130;2022-12-18T01:05:06;153284.81;;;3.40;100.00
11888;BME280;6003;42.756;23.130;2022-12-18T01:07:33;153282.16;;;3.39;100.00
11888;BME280;6003;42.756;23.130;2022-12-18T01:10:01;153282.16;;;3.39;100.00
11888;BME280;6003;42.756;23.130;2022-12-18T01:12:28;153269.03;;;3.34;100.00
11888;BME280;6003;42.756;23.130;2022-12-18T01:14:55;153275.56;;;3.36;100.00
11888;BME280;6003;42.756;23.130;2022-12-18T01:17:21;153283.50;;;3.39;100.00
11888;BME280;6003;42.756;23.130;2022-12-18T01:19:48;153261.13;;;3.31;100.00
11888;BME280;6003;42.756;23.130;2022-12-18T01:22:15;153250.63;;;3.27;100.00
11888;BME280;6003;42.756;23.130;2022-12-18T01:24:42;153278.22;;;3.37;100.00
11888;BME280;6003;42.756;23.130;2022-12-18T01:27:10;153269.03;;;3.34;100.00
11888;BME280;6003;42.756;23.130;2022-12-18T01:29:37;153266.38;;;3.33;100.00
11888;BME280;6003;42.756;23.130;2022-12-18T01:32:04;153263.78;;;3.32;100.00
11888;BME280;6003;42.756;23.130;2022-12-18T01:34:31;153266.38;;;3.33;100.00
11888;BME280;6003;42.756;23.130;2022-12-18T01:36:58;153272.97;;;3.35;100.00
11888;BME280;6003;42.756;23.130;2022-12-18T01:39:24;153274.28;;;3.36;100.00
11888;BME280;6003;42.756;23.130;2022-12-18T01:41:51;153262.47;;;3.31;100.00
11888;BME280;6003;42.756;23.130;2022-12-18T01:44:55;153246.72;;;3.25;100.00
11888;BME280;6003;42.756;23.130;2022-12-18T01:47:25;153250.63;;;3.27;100.00
11888;BME280;6003;42.756;23.130;2022-12-18T01:49:52;153242.75;;;3.24;100.00
11888;BME280;6003;42.756;23.130;2022-12-18T01:52:20;153248.03;;;3.26;100.00
11888;BME280;6003;42.756;23.130;2022-12-18T01:54:49;153258.50;;;3.30;100.00
11888;BME280;6003;42.756;23.130;2022-12-18T01:57:17;153226.97;;;3.17;100.00
11888;BME280;6003;42.756;23.130;2022-12-18T01:59:46;153205.97;;;3.09;100.00
11888;BME280;6003;42.756;23.130;2022-12-18T02:02:17;153194.13;;;3.05;100.00
11888;BME280;6003;42.756;23.130;2022-12-18T02:04:44;153166.56;;;2.94;100.00
11888;BME280;6003;42.756;23.130;2022-12-18T02:07:16;153142.88;;;2.85;100.00
11888;BME280;6003;42.756;23.130;2022-12-18T02:09:48;153145.53;;;2.86;100.00
11888;BME280;6003;42.756;23.130;2022-12-18T02:12:19;153148.16;;;2.87;100.00
11888;BME280;6003;42.756;23.130;2022-12-18T02:14:53;153135.00;;;2.82;100.00
11888;BME280;6003;42.756;23.130;2022-12-18T02:17:29;153132.41;;;2.81;100.00
11888;BME280;6003;42.756;23.130;2022-12-18T02:20:07;153137.66;;;2.83;100.00
11888;BME280;6003;42.756;23.130;2022-12-18T02:22:53;153132.41;;;2.81;100.00
11888;BME280;6003;42.756;23.130;2022-12-18T02:25:40;153137.66;;;2.83;100.00
11888;BME280;6003;42.756;23.130;2022-12-18T02:28:13;153133.72;;;2.81;100.00
11888;BME280;6003;42.756;23.130;2022-12-18T02:30:43;153117.94;;;2.75;100.00
11888;BME280;6003;42.756;23.130;2022-12-18T02:33:11;153096.94;;;2.67;100.00
11888;BME280;6003;42.756;23.130;2022-12-18T02:35:40;153102.19;;;2.69;100.00
11888;BME280;6003;42.756;23.130;2022-12-18T02:38:07;153099.59;;;2.68;100.00
11888;BME280;6003;42.756;23.130;2022-12-18T02:40:36;153103.50;;;2.69;100.00
11888;BME280;6003;42.756;23.130;2022-12-18T02:43:08;153091.72;;;2.65;100.00
11888;BME280;6003;42.756;23.130;2022-12-18T02:45:45;153085.13;;;2.62;100.00
11888;BME280;6003;42.756;23.130;2022-12-18T02:48:13;153082.47;;;2.61;100.00
11888;BME280;6003;42.756;23.130;2022-12-18T02:50:44;153058.84;;;2.52;100.00
11888;BME280;6003;42.756;23.130;2022-12-18T02:53:17;153053.59;;;2.50;100.00
11888;BME280;6003;42.756;23.130;2022-12-18T02:55:55;153056.25;;;2.51;100.00
11888;BME280;6003;42.756;23.130;2022-12-18T02:58:30;153048.38;;;2.48;100.00
11888;BME280;6003;42.756;23.130;2022-12-18T03:01:03;153048.38;;;2.48;100.00
11888;BME280;6003;42.756;23.130;2022-12-18T03:03:38;153053.59;;;2.50;100.00
11888;BME280;6003;42.756;23.130;2022-12-18T03:06:10;153052.28;;;2.49;100.00
11888;BME280;6003;42.756;23.130;2022-12-18T03:08:42;153058.84;;;2.52;100.00
11888;BME280;6003;42.756;23.130;2022-12-18T03:11:12;153050.97;;;2.49;100.00
11888;BME280;6003;42.756;23.130;2022-12-18T03:13:42;153056.25;;;2.51;100.00
11888;BME280;6003;42.756;23.130;2022-12-18T03:16:17;153031.28;;;2.41;100.00
11888;BME280;6003;42.756;23.130;2022-12-18T03:18:48;153035.22;;;2.43;100.00
11888;BME280;6003;42.756;23.130;2022-12-18T03:21:20;153027.34;;;2.40;100.00
11888;BME280;6003;42.756;23.130;2022-12-18T03:23:49;153010.31;;;2.33;100.00
11888;BME280;6003;42.756;23.130;2022-12-18T03:26:19;152993.22;;;2.26;100.00
11888;BME280;6003;42.756;23.130;2022-12-18T03:28:51;152988.00;;;2.24;100.00
11888;BME280;6003;42.756;23.130;2022-12-18T03:31:23;153008.97;;;2.33;100.00
11888;BME280;6003;42.756;23.130;2022-12-18T03:33:52;153014.22;;;2.35;100.00
11888;BME280;6003;42.756;23.130;2022-12-18T03:36:19;153022.09;;;2.38;100.00
11888;BME280;6003;42.756;23.130;2022-12-18T03:38:46;153032.63;;;2.42;100.00
11888;BME280;6003;42.756;23.130;2022-12-18T03:41:18;153040.50;;;2.45;100.00
11888;BME280;6003;42.756;23.130;2022-12-18T03:43:50;153036.53;;;2.43;100.00
11888;BME280;6003;42.756;23.130;2022-12-18T03:46:26;153024.75;;;2.39;100.00
11888;BME280;6003;42.756;23.130;2022-12-18T03:48:59;153023.41;;;2.38;100.00
11888;BME280;6003;42.756;23.130;2022-12-18T03:51:34;152999.78;;;2.29;100.00
11888;BME280;6003;42.756;23.130;2022-12-18T03:54:04;152999.78;;;2.29;100.00
11888;BME280;6003;42.756;23.130;2022-12-18T03:56:36;152985.34;;;2.23;100.00
11888;BME280;6003;42.756;23.130;2022-12-18T03:59:06;152993.22;;;2.26;100.00
11888;BME280;6003;42.756;23.130;2022-12-18T04:01:47;152998.47;;;2.29;100.00
11888;BME280;6003;42.756;23.130;2022-12-18T04:04:16;153005.03;;;2.31;100.00
11888;BME280;6003;42.756;23.130;2022-12-18T04:06:46;153008.97;;;2.33;100.00
11888;BME280;6003;42.756;23.130;2022-12-18T04:09:14;153011.63;;;2.34;100.00
11888;BME280;6003;42.756;23.130;2022-12-18T04:11:41;153006.34;;;2.32;100.00
11888;BME280;6003;42.756;23.130;2022-12-18T04:14:09;153019.50;;;2.37;100.00
11888;BME280;6003;42.756;23.130;2022-12-18T04:16:37;153022.09;;;2.38;100.00
11888;BME280;6003;42.756;23.130;2022-12-18T04:19:04;152988.00;;;2.24;100.00
11888;BME280;6003;42.756;23.130;2022-12-18T04:21:31;152986.66;;;2.24;100.00
11888;BME280;6003;42.756;23.130;2022-12-18T04:23:58;152974.84;;;2.19;100.00
11888;BME280;6003;42.756;23.130;2022-12-18T04:26:24;152978.78;;;2.21;100.00
11888;BME280;6003;42.756;23.130;2022-12-18T04:28:51;152982.72;;;2.22;100.00
11888;BME280;6003;42.756;23.130;2022-12-18T04:31:18;152980.06;;;2.21;100.00
11888;BME280;6003;42.756;23.130;2022-12-18T04:33:46;152985.34;;;2.23;100.00
11888;BME280;6003;42.756;23.130;2022-12-18T04:36:13;152959.09;;;2.13;100.00
11888;BME280;6003;42.756;23.130;2022-12-18T04:38:40;152945.97;;;2.08;100.00
11888;BME280;6003;42.756;23.130;2022-12-18T04:41:07;152948.59;;;2.09;100.00
11888;BME280;6003;42.756;23.130;2022-12-18T04:43:33;152953.84;;;2.11;100.00
11888;BME280;6003;42.756;23.130;2022-12-18T04:46:04;152938.09;;;2.05;100.00
11888;BME280;6003;42.756;23.130;2022-12-18T04:48:31;152930.22;;;2.02;100.00
11888;BME280;6003;42.756;23.130;2022-12-18T04:50:59;152914.50;;;1.96;100.00
11888;BME280;6003;42.756;23.130;2022-12-18T04:53:26;152914.50;;;1.96;100.00
11888;BME280;6003;42.756;23.130;2022-12-18T04:56:02;152922.38;;;1.99;100.00
11888;BME280;6003;42.756;23.130;2022-12-18T04:58:29;152935.44;;;2.04;100.00
11888;BME280;6003;42.756;23.130;2022-12-18T05:00:56;152932.84;;;2.03;100.00
11888;BME280;6003;42.756;23.130;2022-12-18T05:03:23;152896.09;;;1.89;100.00
11888;BME280;6003;42.756;23.130;2022-12-18T05:05:49;152882.97;;;1.84;100.00
11888;BME280;6003;42.756;23.130;2022-12-18T05:08:18;152869.88;;;1.78;100.00
11888;BME280;6003;42.756;23.130;2022-12-18T05:10:45;152881.66;;;1.83;100.00
11888;BME280;6003;42.756;23.130;2022-12-18T05:13:12;152871.19;;;1.79;100.00
11888;BME280;6003;42.756;23.130;2022-12-18T05:15:38;152869.88;;;1.78;100.00
11888;BME280;6003;42.756;23.130;2022-12-18T05:18:07;152861.94;;;1.75;100.00
11888;BME280;6003;42.756;23.130;2022-12-18T05:20:34;152871.19;;;1.79;100.00
11888;BME280;6003;42.756;23.130;2022-12-18T05:23:01;152854.09;;;1.72;100.00
11888;BME280;6003;42.756;23.130;2022-12-18T05:25:29;152856.75;;;1.73;100.00
11888;BME280;6003;42.756;23.130;2022-12-18T05:27:56;152846.22;;;1.69;100.00
11888;BME280;6003;42.756;23.130;2022-12-18T05:30:23;152846.22;;;1.69;100.00
11888;BME280;6003;42.756;23.130;2022-12-18T05:32:49;152847.56;;;1.70;100.00
11888;BME280;6003;42.756;23.130;2022-12-18T05:35:16;152848.88;;;1.70;100.00
11888;BME280;6003;42.756;23.130;2022-12-18T05:37:43;152854.09;;;1.72;100.00
11888;BME280;6003;42.756;23.130;2022-12-18T05:40:11;152841.00;;;1.67;100.00
11888;BME280;6003;42.756;23.130;2022-12-18T05:42:39;152844.91;;;1.69;100.00
11888;BME280;6003;42.756;23.130;2022-12-18T05:45:07;152837.03;;;1.66;100.00
11888;BME280;6003;42.756;23.130;2022-12-18T05:47:34;152856.75;;;1.73;100.00
11888;BME280;6003;42.756;23.130;2022-12-18T05:50:01;152847.56;;;1.70;100.00
11888;BME280;6003;42.756;23.130;2022-12-18T05:52:28;152861.94;;;1.75;100.00
11888;BME280;6003;42.756;23.130;2022-12-18T05:54:55;152872.47;;;1.79;100.00
11888;BME280;6003;42.756;23.130;2022-12-18T05:57:21;152872.47;;;1.79;100.00
11888;BME280;6003;42.756;23.130;2022-12-18T05:59:50;152855.44;;;1.73;100.00
11888;BME280;6003;42.756;23.130;2022-12-18T06:02:16;152882.97;;;1.84;100.00
11888;BME280;6003;42.756;23.130;2022-12-18T06:04:43;152868.53;;;1.78;100.00
11888;BME280;6003;42.756;23.130;2022-12-18T06:07:10;152882.97;;;1.84;100.00
11888;BME280;6003;42.756;23.130;2022-12-18T06:09:37;152875.09;;;1.80;100.00
11888;BME280;6003;42.756;23.130;2022-12-18T06:12:04;152867.22;;;1.77;100.00
11888;BME280;6003;42.756;23.130;2022-12-18T06:14:31;152872.47;;;1.79;100.00
11888;BME280;6003;42.756;23.130;2022-12-18T06:16:59;152871.19;;;1.79;100.00
11888;BME280;6003;42.756;23.130;2022-12-18T06:19:26;152856.75;;;1.73;100.00
11888;BME280;6003;42.756;23.130;2022-12-18T06:21:53;152861.94;;;1.75;100.00
11888;BME280;6003;42.756;23.130;2022-12-18T06:24:19;152864.59;;;1.76;100.00
11888;BME280;6003;42.756;23.130;2022-12-18T06:26:46;152833.13;;;1.64;100.00
11888;BME280;6003;42.756;23.130;2022-12-18T06:29:13;152858.03;;;1.74;100.00
11888;BME280;6003;42.756;23.130;2022-12-18T06:31:40;152851.47;;;1.71;100.00
11888;BME280;6003;42.756;23.130;2022-12-18T06:34:08;152872.47;;;1.79;100.00
11888;BME280;6003;42.756;23.130;2022-12-18T06:36:35;152880.34;;;1.83;100.00
11888;BME280;6003;42.756;23.130;2022-12-18T06:39:02;152875.09;;;1.80;100.00
11888;BME280;6003;42.756;23.130;2022-12-18T06:41:29;152875.09;;;1.80;100.00
11888;BME280;6003;42.756;23.130;2022-12-18T06:43:57;152875.09;;;1.80;100.00
11888;BME280;6003;42.756;23.130;2022-12-18T06:46:24;152885.63;;;1.85;100.00
11888;BME280;6003;42.756;23.130;2022-12-18T06:48:50;152873.78;;;1.80;100.00
11888;BME280;6003;42.756;23.130;2022-12-18T06:51:21;152885.63;;;1.85;100.00
11888;BME280;6003;42.756;23.130;2022-12-18T06:53:48;152867.22;;;1.77;100.00
11888;BME280;6003;42.756;23.130;2022-12-18T06:56:15;152841.00;;;1.67;100.00
11888;BME280;6003;42.756;23.130;2022-12-18T06:58:42;152846.22;;;1.69;100.00
11888;BME280;6003;42.756;23.130;2022-12-18T07:01:11;152821.31;;;1.60;100.00
11888;BME280;6003;42.756;23.130;2022-12-18T07:03:39;152810.84;;;1.55;100.00
11888;BME280;6003;42.756;23.130;2022-12-18T07:06:11;152804.25;;;1.53;100.00
11888;BME280;6003;42.756;23.130;2022-12-18T07:08:41;152810.84;;;1.55;100.00
11888;BME280;6003;42.756;23.130;2022-12-18T07:11:08;152808.19;;;1.54;100.00
11888;BME280;6003;42.756;23.130;2022-12-18T07:13:35;152793.75;;;1.49;100.00
11888;BME280;6003;42.756;23.130;2022-12-18T07:16:07;152793.75;;;1.49;100.00
11888;BME280;6003;42.756;23.130;2022-12-18T07:18:34;152801.59;;;1.52;100.00
11888;BME280;6003;42.756;23.130;2022-12-18T07:21:05;152799.00;;;1.51;100.00
11888;BME280;6003;42.756;23.130;2022-12-18T07:23:32;152806.88;;;1.54;100.00
11888;BME280;6003;42.756;23.130;2022-12-18T07:26:02;152808.19;;;1.54;100.00
11888;BME280;6003;42.756;23.130;2022-12-18T07:28:30;152806.88;;;1.54;100.00
11888;BME280;6003;42.756;23.130;2022-12-18T07:30:57;152812.13;;;1.56;100.00
11888;BME280;6003;42.756;23.130;2022-12-18T07:33:24;152808.19;;;1.54;100.00
11888;BME280;6003;42.756;23.130;2022-12-18T07:35:51;152825.22;;;1.61;100.00
11888;BME280;6003;42.756;23.130;2022-12-18T07:38:18;152826.56;;;1.62;100.00
11888;BME280;6003;42.756;23.130;2022-12-18T07:40:44;152827.88;;;1.62;100.00
11888;BME280;6003;42.756;23.130;2022-12-18T07:43:13;152814.75;;;1.57;100.00
11888;BME280;6003;42.756;23.130;2022-12-18T07:45:39;152826.56;;;1.62;100.00
11888;BME280;6003;42.756;23.130;2022-12-18T07:48:06;152804.25;;;1.53;100.00
11888;BME280;6003;42.756;23.130;2022-12-18T07:50:33;152839.66;;;1.67;100.00
11888;BME280;6003;42.756;23.130;2022-12-18T07:53:00;152833.13;;;1.64;100.00
11888;BME280;6003;42.756;23.130;2022-12-18T07:55:30;152843.59;;;1.68;100.00
11888;BME280;6003;42.756;23.130;2022-12-18T07:57:57;152848.88;;;1.70;100.00
11888;BME280;6003;42.756;23.130;2022-12-18T08:00:25;152841.00;;;1.67;100.00
11888;BME280;6003;42.756;23.130;2022-12-18T08:02:51;152831.78;;;1.64;100.00
11888;BME280;6003;42.756;23.130;2022-12-18T08:05:18;152823.91;;;1.61;100.00
11888;BME280;6003;42.756;23.130;2022-12-18T08:07:46;152843.59;;;1.68;100.00
11888;BME280;6003;42.756;23.130;2022-12-18T08:10:13;152854.09;;;1.72;100.00
11888;BME280;6003;42.756;23.130;2022-12-18T08:12:40;152861.94;;;1.75;100.00
11888;BME280;6003;42.756;23.130;2022-12-18T08:15:07;152880.34;;;1.83;100.00
11888;BME280;6003;42.756;23.130;2022-12-18T08:17:36;152881.66;;;1.83;100.00
11888;BME280;6003;42.756;23.130;2022-12-18T08:20:03;152897.41;;;1.89;100.00
11888;BME280;6003;42.756;23.130;2022-12-18T08:22:30;152909.22;;;1.94;100.00
11888;BME280;6003;42.756;23.130;2022-12-18T08:24:56;152903.97;;;1.92;100.00
11888;BME280;6003;42.756;23.130;2022-12-18T08:27:23;152919.69;;;1.98;100.00
11888;BME280;6003;42.756;23.130;2022-12-18T08:29:50;152927.56;;;2.01;100.00
11888;BME280;6003;42.756;23.130;2022-12-18T08:32:17;152930.22;;;2.02;100.00
11888;BME280;6003;42.756;23.130;2022-12-18T08:34:45;152961.72;;;2.14;100.00
11888;BME280;6003;42.756;23.130;2022-12-18T08:37:12;152977.47;;;2.20;100.00
11888;BME280;6003;42.756;23.130;2022-12-18T08:39:39;152997.16;;;2.28;100.00
11888;BME280;6003;42.756;23.130;2022-12-18T08:42:06;153010.31;;;2.33;100.00
11888;BME280;6003;42.756;23.130;2022-12-18T08:44:52;152985.34;;;2.23;100.00
11888;BME280;6003;42.756;23.130;2022-12-18T08:47:22;153031.28;;;2.41;100.00
11888;BME280;6003;42.756;23.130;2022-12-18T08:49:50;153031.28;;;2.41;100.00
11888;BME280;6003;42.756;23.130;2022-12-18T08:52:17;153048.38;;;2.48;100.00
11888;BME280;6003;42.756;23.130;2022-12-18T08:54:44;153087.75;;;2.63;100.00
11888;BME280;6003;42.756;23.130;2022-12-18T08:57:11;153115.34;;;2.74;100.00
11888;BME280;6003;42.756;23.130;2022-12-18T08:59:37;153103.50;;;2.69;99.65
11888;BME280;6003;42.756;23.130;2022-12-18T09:02:04;153091.72;;;2.65;100.00
11888;BME280;6003;42.756;23.130;2022-12-18T09:04:32;153098.22;;;2.67;99.22
11888;BME280;6003;42.756;23.130;2022-12-18T09:07:02;153093.03;;;2.65;98.77
11888;BME280;6003;42.756;23.130;2022-12-18T09:09:29;153090.34;;;2.64;98.90
11888;BME280;6003;42.756;23.130;2022-12-18T09:11:55;153121.91;;;2.77;99.73
11888;BME280;6003;42.756;23.130;2022-12-18T09:14:22;153117.94;;;2.75;99.32
11888;BME280;6003;42.756;23.130;2022-12-18T09:16:49;153129.78;;;2.80;98.80
11888;BME280;6003;42.756;23.130;2022-12-18T09:19:16;153121.91;;;2.77;98.51
11888;BME280;6003;42.756;23.130;2022-12-18T09:21:43;153132.41;;;2.81;99.03
11888;BME280;6003;42.756;23.130;2022-12-18T09:24:13;153177.06;;;2.98;99.08
11888;BME280;6003;42.756;23.130;2022-12-18T09:26:40;153188.91;;;3.03;98.72
11888;BME280;6003;42.756;23.130;2022-12-18T09:29:07;153190.19;;;3.03;98.71
11888;BME280;6003;42.756;23.130;2022-12-18T09:31:34;153187.59;;;3.02;98.32
11888;BME280;6003;42.756;23.130;2022-12-18T09:34:02;153205.97;;;3.09;98.81
11888;BME280;6003;42.756;23.130;2022-12-18T09:36:29;153261.13;;;3.31;98.37
11888;BME280;6003;42.756;23.130;2022-12-18T09:38:55;153240.13;;;3.23;97.23
11888;BME280;6003;42.756;23.130;2022-12-18T09:41:39;153258.50;;;3.30;96.71
11888;BME280;6003;42.756;23.130;2022-12-18T09:44:15;153229.59;;;3.19;96.56
11888;BME280;6003;42.756;23.130;2022-12-18T09:46:46;153196.78;;;3.06;95.77
11888;BME280;6003;42.756;23.130;2022-12-18T09:49:17;153220.41;;;3.15;96.56
11888;BME280;6003;42.756;23.130;2022-12-18T09:51:47;153240.13;;;3.23;96.29
11888;BME280;6003;42.756;23.130;2022-12-18T09:54:20;153229.59;;;3.19;95.57
11888;BME280;6003;42.756;23.130;2022-12-18T09:56:49;153254.59;;;3.28;96.08
11888;BME280;6003;42.756;23.130;2022-12-18T09:59:22;153287.41;;;3.41;96.18
11888;BME280;6003;42.756;23.130;2022-12-18T10:01:50;153297.91;;;3.45;96.72
11888;BME280;6003;42.756;23.130;2022-12-18T10:04:17;153337.38;;;3.60;96.27
11888;BME280;6003;42.756;23.130;2022-12-18T10:06:49;153337.38;;;3.60;95.14
11888;BME280;6003;42.756;23.130;2022-12-18T10:09:27;153346.56;;;3.64;95.65
11888;BME280;6003;42.756;23.130;2022-12-18T10:12:07;153389.94;;;3.81;95.27
11888;BME280;6003;42.756;23.130;2022-12-18T10:14:42;153382.06;;;3.78;95.54
11888;BME280;6003;42.756;23.130;2022-12-18T10:17:19;153421.47;;;3.93;94.28
11888;BME280;6003;42.756;23.130;2022-12-18T10:19:52;153408.31;;;3.88;93.54
11888;BME280;6003;42.756;23.130;2022-12-18T10:22:29;153388.63;;;3.80;93.11
11888;BME280;6003;42.756;23.130;2022-12-18T10:25:05;153326.81;;;3.56;92.73
11888;BME280;6003;42.756;23.130;2022-12-18T10:27:41;153316.34;;;3.52;93.46
11888;BME280;6003;42.756;23.130;2022-12-18T10:30:13;153284.81;;;3.40;93.76
11888;BME280;6003;42.756;23.130;2022-12-18T10:32:40;153276.94;;;3.37;94.02
11888;BME280;6003;42.756;23.130;2022-12-18T10:35:14;153255.91;;;3.29;94.13
11888;BME280;6003;42.756;23.130;2022-12-18T10:38:05;153283.50;;;3.39;94.56
11888;BME280;6003;42.756;23.130;2022-12-18T10:40:33;153251.94;;;3.27;94.19
11888;BME280;6003;42.756;23.130;2022-12-18T10:43:16;153254.59;;;3.28;94.81
11888;BME280;6003;42.756;23.130;2022-12-18T10:45:59;153207.25;;;3.10;94.87
11888;BME280;6003;42.756;23.130;2022-12-18T10:48:27;153190.19;;;3.03;94.49
11888;BME280;6003;42.756;23.130;2022-12-18T10:50:54;153187.59;;;3.02;94.94
11888;BME280;6003;42.756;23.130;2022-12-18T10:53:23;153174.44;;;2.97;94.08
11888;BME280;6003;42.756;23.130;2022-12-18T10:55:52;153202.00;;;3.08;94.32
11888;BME280;6003;42.756;23.130;2022-12-18T10:58:25;153224.38;;;3.16;93.97
11888;BME280;6003;42.756;23.130;2022-12-18T11:01:05;153179.66;;;2.99;92.04
11888;BME280;6003;42.756;23.130;2022-12-18T11:03:34;153245.34;;;3.25;93.23
11888;BME280;6003;42.756;23.130;2022-12-18T11:06:04;153230.91;;;3.19;91.78
11888;BME280;6003;42.756;23.130;2022-12-18T11:08:31;153244.06;;;3.24;92.00
11888;BME280;6003;42.756;23.130;2022-12-18T11:10:58;153248.03;;;3.26;91.33
11888;BME280;6003;42.756;23.130;2022-12-18T11:13:28;153242.75;;;3.24;90.54
11888;BME280;6003;42.756;23.130;2022-12-18T11:15:56;153234.88;;;3.21;90.50
11888;BME280;6003;42.756;23.130;2022-12-18T11:18:26;153237.47;;;3.22;89.53
11888;BME280;6003;42.756;23.130;2022-12-18T11:20:55;153233.56;;;3.20;89.64
11888;BME280;6003;42.756;23.130;2022-12-18T11:23:24;153261.13;;;3.31;90.28
11888;BME280;6003;42.756;23.130;2022-12-18T11:25:53;153280.84;;;3.38;90.95
11888;BME280;6003;42.756;23.130;2022-12-18T11:28:35;153297.91;;;3.45;90.83
11888;BME280;6003;42.756;23.130;2022-12-18T11:31:14;153324.22;;;3.55;91.13
11888;BME280;6003;42.756;23.130;2022-12-18T11:33:46;153329.47;;;3.57;90.07
11888;BME280;6003;42.756;23.130;2022-12-18T11:36:15;153337.38;;;3.60;90.23
11888;BME280;6003;42.756;23.130;2022-12-18T11:38:44;153347.88;;;3.65;89.92
11888;BME280;6003;42.756;23.130;2022-12-18T11:41:19;153364.97;;;3.71;90.67
11888;BME280;6003;42.756;23.130;2022-12-18T11:43:52;153380.75;;;3.77;91.23
11888;BME280;6003;42.756;23.130;2022-12-18T11:46:24;153397.81;;;3.84;90.70
11888;BME280;6003;42.756;23.130;2022-12-18T11:48:58;153416.19;;;3.91;91.28
11888;BME280;6003;42.756;23.130;2022-12-18T11:51:32;153428.06;;;3.96;90.71
11888;BME280;6003;42.756;23.130;2022-12-18T11:54:01;153432.03;;;3.97;90.88
11888;BME280;6003;42.756;23.130;2022-12-18T11:56:32;153468.84;;;4.12;92.19
11888;BME280;6003;42.756;23.130;2022-12-18T11:59:08;153513.53;;;4.29;91.23
11888;BME280;6003;42.756;23.130;2022-12-18T12:01:50;153512.19;;;4.28;90.05
11888;BME280;6003;42.756;23.130;2022-12-18T12:07:32;153510.88;;;4.28;89.65
11888;BME280;6003;42.756;23.130;2022-12-18T12:10:09;153447.78;;;4.03;88.92
11888;BME280;6003;42.756;23.130;2022-12-18T12:12:54;153425.44;;;3.95;90.55
11888;BME280;6003;42.756;23.130;2022-12-18T12:15:35;153474.06;;;4.14;92.08
11888;BME280;6003;42.756;23.130;2022-12-18T12:18:13;153453.00;;;4.05;90.29
11888;BME280;6003;42.756;23.130;2022-12-18T12:20:49;153430.66;;;3.97;90.27
11888;BME280;6003;42.756;23.130;2022-12-18T12:23:30;153410.97;;;3.89;89.86
11888;BME280;6003;42.756;23.130;2022-12-18T12:26:03;153380.75;;;3.77;89.76
11888;BME280;6003;42.756;23.130;2022-12-18T12:28:52;153382.06;;;3.78;90.40
11888;BME280;6003;42.756;23.130;2022-12-18T12:31:33;153392.56;;;3.82;90.18
11888;BME280;6003;42.756;23.130;2022-12-18T12:34:11;153361.00;;;3.70;90.13
11888;BME280;6003;42.756;23.130;2022-12-18T12:36:51;153311.06;;;3.50;90.06
11888;BME280;6003;42.756;23.130;2022-12-18T12:39:23;153313.72;;;3.51;91.13
11888;BME280;6003;42.756;23.130;2022-12-18T12:41:54;153304.47;;;3.48;91.02
11888;BME280;6003;42.756;23.130;2022-12-18T12:44:42;153333.41;;;3.59;91.70
11888;BME280;6003;42.756;23.130;2022-12-18T12:47:16;153318.94;;;3.53;91.80
11888;BME280;6003;42.756;23.130;2022-12-18T12:49:43;153329.47;;;3.57;91.57
11888;BME280;6003;42.756;23.130;2022-12-18T12:52:15;153339.97;;;3.61;91.74
11888;BME280;6003;42.756;23.130;2022-12-18T12:54:43;153325.53;;;3.56;91.10
11888;BME280;6003;42.756;23.130;2022-12-18T12:57:14;153315.03;;;3.52;90.56
11888;BME280;6003;42.756;23.130;2022-12-18T12:59:49;153300.56;;;3.46;91.10
11888;BME280;6003;42.756;23.130;2022-12-18T13:02:23;153290.03;;;3.42;91.52
11888;BME280;6003;42.756;23.130;2022-12-18T13:04:59;153283.50;;;3.39;91.20
11888;BME280;6003;42.756;23.130;2022-12-18T13:07:32;153301.88;;;3.47;91.55
11888;BME280;6003;42.756;23.130;2022-12-18T13:10:24;153284.81;;;3.40;90.85